Time;durP1;ratioP1;P1;durP2;ratioP2;P2;SDS_P1;SDS_P2;PMS_P1;PMS_P2;Temp;Humidity;BMP_temperature;BMP_pressure;BME280_temperature;BME280_humidity;BME280_pressure;Samples;Min_cycle;Max_cycle;Signal;HPM_P1;HPM_P2
2023/05/31 00:00:04;;;;;;;;;;;;;;;13.94;64.48;102546.00;4959794;28;19928;-62
2023/05/31 00:02:30;;;;;;;;;;;;;;;13.91;65.07;102540.97;4950767;28;20323;-62
2023/05/31 00:04:55;;;;;;;;;;;;;;;13.89;65.00;102539.44;4951503;28;20424;-61
2023/05/31 00:07:20;;;;;;;;;;;;;;;13.88;64.92;102540.44;4944924;28;20005;-62
2023/05/31 00:09:45;;;;;;;;;;;;;;;13.85;65.05;102538.88;4956845;28;19954;-62
2023/05/31 00:12:11;;;;;;;;;;;;;;;13.82;65.18;102538.34;4962313;28;19922;-62
2023/05/31 00:14:36;;;;;;;;;;;;;;;13.79;65.25;102536.81;4946912;28;19926;-61
2023/05/31 00:17:01;;;;;;;;;;;;;;;13.77;65.39;102529.94;4959863;28;19926;-61
2023/05/31 00:19:26;;;;;;;;;;;;;;;13.73;65.30;102533.91;4946588;28;19940;-62
2023/05/31 00:21:51;;;;;;;;;;;;;;;13.70;65.74;102543.06;4947047;28;19922;-62
2023/05/31 00:24:17;;;;;;;;;;;;;;;13.67;65.59;102540.69;4959462;28;19925;-62
2023/05/31 00:26:42;;;;;;;;;;;;;;;13.66;66.00;102538.19;4961211;28;20039;-61
2023/05/31 00:29:07;;;;;;;;;;;;;;;13.62;66.22;102538.47;4942511;28;19922;-62
2023/05/31 00:31:32;;;;;;;;;;;;;;;13.61;66.27;102535.97;4960998;28;19949;-61
2023/05/31 00:33:57;;;;;;;;;;;;;;;13.59;66.71;102532.59;4954618;28;19927;-61
2023/05/31 00:36:23;;;;;;;;;;;;;;;13.56;66.57;102536.38;4958035;28;19918;-62
2023/05/31 00:38:48;;;;;;;;;;;;;;;13.54;66.74;102535.69;4950607;28;19957;-62
2023/05/31 00:41:13;;;;;;;;;;;;;;;13.53;66.83;102535.84;4960595;28;19925;-62
2023/05/31 00:43:38;;;;;;;;;;;;;;;13.50;66.86;102544.16;4935505;28;19974;-61
2023/05/31 00:46:04;;;;;;;;;;;;;;;13.48;66.87;102535.44;4951531;28;19954;-62
2023/05/31 00:48:29;;;;;;;;;;;;;;;13.45;67.07;102544.59;4949396;28;19923;-62
2023/05/31 00:50:55;;;;;;;;;;;;;;;13.42;66.96;102542.22;4959709;28;20504;-62
2023/05/31 00:53:21;;;;;;;;;;;;;;;13.40;67.40;102543.34;4962516;28;19925;-62
2023/05/31 00:55:46;;;;;;;;;;;;;;;13.37;67.32;102546.31;4959931;28;19966;-61
2023/05/31 00:58:12;;;;;;;;;;;;;;;13.36;67.41;102544.66;4963289;28;20307;-61
2023/05/31 01:00:37;;;;;;;;;;;;;;;13.32;67.32;102552.94;4954715;28;19922;-62
2023/05/31 01:03:02;;;;;;;;;;;;;;;13.30;67.51;102543.41;4962549;28;19922;-62
2023/05/31 01:05:27;;;;;;;;;;;;;;;13.27;67.56;102544.50;4958519;28;20348;-62
2023/05/31 01:07:53;;;;;;;;;;;;;;;13.26;67.49;102542.84;4959516;28;19925;-62
2023/05/31 01:10:18;;;;;;;;;;;;;;;13.23;67.79;102547.63;4963178;28;19922;-62
2023/05/31 01:13:00;;;;;;;;;;;;;;;13.21;67.77;102544.25;4965511;28;19921;-61
2023/05/31 01:15:27;;;;;;;;;;;;;;;13.16;68.10;102542.00;4946822;28;20012;-62
2023/05/31 01:18:18;;;;;;;;;;;;;;;13.14;68.30;102546.66;4946641;28;19927;-62
2023/05/31 01:20:47;;;;;;;;;;;;;;;13.11;68.26;102540.78;4956479;28;20295;-62
2023/05/31 01:23:30;;;;;;;;;;;;;;;13.10;68.16;102539.09;4950838;28;20056;-62
2023/05/31 01:25:56;;;;;;;;;;;;;;;13.08;68.02;102541.91;4954732;28;19934;-62
2023/05/31 01:28:21;;;;;;;;;;;;;;;13.07;68.34;102550.91;4957037;28;19918;-62
2023/05/31 01:30:48;;;;;;;;;;;;;;;13.05;68.63;102544.03;4952219;28;19922;-61
2023/05/31 01:33:14;;;;;;;;;;;;;;;13.02;68.30;102546.00;4950798;28;19924;-62
2023/05/31 01:35:40;;;;;;;;;;;;;;;13.02;68.63;102555.81;4952295;28;19929;-62
2023/05/31 01:38:05;;;;;;;;;;;;;;;13.00;68.52;102547.09;4956236;28;19918;-61
2023/05/31 01:40:31;;;;;;;;;;;;;;;12.97;68.71;102544.72;4950625;28;20042;-62
2023/05/31 01:42:56;;;;;;;;;;;;;;;12.95;68.93;102544.03;4954092;28;19923;-61
2023/05/31 01:45:22;;;;;;;;;;;;;;;12.93;68.98;102544.19;4960634;28;20299;-62
2023/05/31 01:47:48;;;;;;;;;;;;;;;12.91;69.07;102542.63;4955007;28;19941;-61
2023/05/31 01:50:14;;;;;;;;;;;;;;;12.89;69.06;102532.13;4957086;28;20387;-61
2023/05/31 01:52:39;;;;;;;;;;;;;;;12.87;69.21;102533.25;4954289;28;19919;-60
2023/05/31 01:55:05;;;;;;;;;;;;;;;12.85;69.65;102532.56;4952758;28;19922;-62
2023/05/31 01:57:31;;;;;;;;;;;;;;;12.84;69.91;102536.22;4951428;28;20400;-61
2023/05/31 01:59:58;;;;;;;;;;;;;;;12.83;70.10;102537.19;4951317;28;19919;-62
2023/05/31 02:02:24;;;;;;;;;;;;;;;12.80;70.07;102533.00;4944735;28;19965;-62
2023/05/31 02:04:49;;;;;;;;;;;;;;;12.80;69.97;102529.50;4958885;28;19918;-62
2023/05/31 02:07:14;;;;;;;;;;;;;;;12.79;70.38;102527.81;4947433;28;19933;-61
2023/05/31 02:09:39;;;;;;;;;;;;;;;12.75;70.67;102521.94;4947365;28;20368;-61
2023/05/31 02:12:04;;;;;;;;;;;;;;;12.73;70.93;102523.06;4957467;28;19926;-62
2023/05/31 02:14:30;;;;;;;;;;;;;;;12.73;70.83;102513.22;4947576;28;19923;-61
2023/05/31 02:16:55;;;;;;;;;;;;;;;12.71;71.20;102524.00;4956254;28;19918;-62
2023/05/31 02:19:25;;;;;;;;;;;;;;;12.69;71.41;102512.66;4954697;28;19937;-62
2023/05/31 02:21:50;;;;;;;;;;;;;;;12.66;71.43;102520.94;4948934;28;20017;-62
2023/05/31 02:24:15;;;;;;;;;;;;;;;12.63;71.78;102513.22;4953262;28;20001;-61
2023/05/31 02:26:40;;;;;;;;;;;;;;;12.61;72.02;102523.19;4951170;28;19924;-61
2023/05/31 02:29:06;;;;;;;;;;;;;;;12.59;72.20;102517.16;4950518;28;20383;-61
2023/05/31 02:31:31;;;;;;;;;;;;;;;12.56;72.44;102520.13;4949245;28;20339;-62
2023/05/31 02:33:56;;;;;;;;;;;;;;;12.53;72.83;102516.91;4950256;28;20005;-61
2023/05/31 02:36:21;;;;;;;;;;;;;;;12.51;73.20;102517.06;4961902;28;20363;-62
2023/05/31 02:38:46;;;;;;;;;;;;;;;12.49;73.39;102519.03;4949662;28;19923;-62
2023/05/31 02:41:11;;;;;;;;;;;;;;;12.46;73.22;102516.63;4947525;28;19918;-62
2023/05/31 02:43:37;;;;;;;;;;;;;;;12.44;73.21;102507.94;4947606;28;20005;-62
2023/05/31 02:46:02;;;;;;;;;;;;;;;12.44;73.59;102507.94;4953369;28;20012;-60
2023/05/31 02:48:28;;;;;;;;;;;;;;;12.41;73.64;102514.38;4948078;28;20385;-62
2023/05/31 02:50:53;;;;;;;;;;;;;;;12.40;73.53;102511.84;4946517;28;19926;-62
2023/05/31 02:53:19;;;;;;;;;;;;;;;12.38;73.60;102508.50;4948110;28;19977;-62
2023/05/31 02:55:44;;;;;;;;;;;;;;;12.37;74.03;102517.47;4949067;28;19957;-61
2023/05/31 02:58:10;;;;;;;;;;;;;;;12.34;73.88;102517.75;4948109;28;19970;-62
2023/05/31 03:00:35;;;;;;;;;;;;;;;12.33;74.24;102513.41;4954103;28;20391;-62
2023/05/31 03:03:01;;;;;;;;;;;;;;;12.32;74.17;102514.38;4951951;28;20030;-62
2023/05/31 03:05:28;;;;;;;;;;;;;;;12.31;74.34;102515.38;4953408;28;19968;-62
2023/05/31 03:07:54;;;;;;;;;;;;;;;12.29;74.54;102517.34;4952701;28;19990;-62
2023/05/31 03:10:19;;;;;;;;;;;;;;;12.29;74.21;102514.69;4955303;28;20372;-62
2023/05/31 03:12:44;;;;;;;;;;;;;;;12.29;74.97;102522.66;4942824;28;19921;-61
2023/05/31 03:15:09;;;;;;;;;;;;;;;12.27;74.51;102516.63;4954567;28;19980;-62
2023/05/31 03:17:37;;;;;;;;;;;;;;;12.27;74.64;102524.63;4948864;28;19919;-61
2023/05/31 03:20:03;;;;;;;;;;;;;;;12.27;74.78;102527.28;4961956;28;19968;-62
2023/05/31 03:22:28;;;;;;;;;;;;;;;12.24;74.61;102517.75;4956840;28;19927;-61
2023/05/31 03:24:54;;;;;;;;;;;;;;;12.24;74.75;102524.91;4959483;28;20017;-61
2023/05/31 03:27:19;;;;;;;;;;;;;;;12.23;75.03;102521.41;4955557;28;20391;-61
2023/05/31 03:29:44;;;;;;;;;;;;;;;12.22;74.92;102524.22;4963070;28;19915;-62
2023/05/31 03:32:10;;;;;;;;;;;;;;;12.20;75.02;102524.34;4952870;28;19992;-62
2023/05/31 03:34:35;;;;;;;;;;;;;;;12.18;75.17;102518.34;4946955;28;19925;-62
2023/05/31 03:37:00;;;;;;;;;;;;;;;12.15;75.29;102513.28;4946626;28;19914;-62
2023/05/31 03:39:25;;;;;;;;;;;;;;;12.15;75.44;102509.78;4946033;28;19918;-61
2023/05/31 03:41:51;;;;;;;;;;;;;;;12.12;76.14;102504.72;4956817;28;19918;-61
2023/05/31 03:44:16;;;;;;;;;;;;;;;12.10;76.38;102513.69;4958974;28;19914;-62
2023/05/31 03:46:41;;;;;;;;;;;;;;;12.10;76.26;102507.50;4960531;28;20020;-62
2023/05/31 03:49:07;;;;;;;;;;;;;;;12.09;76.38;102513.81;4944272;28;19921;-61
2023/05/31 03:51:32;;;;;;;;;;;;;;;12.08;76.37;102512.13;4951236;28;19931;-62
2023/05/31 03:53:57;;;;;;;;;;;;;;;12.07;76.73;102510.47;4958565;28;20050;-61
2023/05/31 03:56:22;;;;;;;;;;;;;;;12.08;76.56;102507.66;4958143;28;19919;-62
2023/05/31 03:58:48;;;;;;;;;;;;;;;12.08;76.34;102505.00;4968111;28;20442;-61
2023/05/31 04:01:13;;;;;;;;;;;;;;;12.09;76.95;102511.16;4944280;28;19915;-62
2023/05/31 04:03:38;;;;;;;;;;;;;;;12.08;76.75;102518.31;4960911;28;20393;-61
2023/05/31 04:06:04;;;;;;;;;;;;;;;12.09;76.90;102511.16;4953598;28;20395;-61
2023/05/31 04:08:29;;;;;;;;;;;;;;;12.10;76.93;102505.69;4959707;28;19953;-62
2023/05/31 04:10:54;;;;;;;;;;;;;;;12.09;77.03;102501.34;4961161;28;19981;-62
2023/05/31 04:13:19;;;;;;;;;;;;;;;12.10;77.01;102510.19;4959684;28;20020;-62
2023/05/31 04:15:45;;;;;;;;;;;;;;;12.10;77.18;102508.34;4943862;28;20330;-61
2023/05/31 04:18:10;;;;;;;;;;;;;;;12.10;77.21;102513.69;4947635;28;19922;-61
2023/05/31 04:20:35;;;;;;;;;;;;;;;12.13;77.62;102512.56;4963161;28;19926;-61
2023/05/31 04:23:00;;;;;;;;;;;;;;;12.15;77.66;102512.44;4954398;28;19914;-62
2023/05/31 04:25:27;;;;;;;;;;;;;;;12.17;77.70;102515.81;4945064;28;19926;-62
2023/05/31 04:27:53;;;;;;;;;;;;;;;12.16;78.05;102514.13;4944806;28;19922;-62
2023/05/31 04:30:19;;;;;;;;;;;;;;;12.18;77.55;102512.16;4949075;28;19927;-62
2023/05/31 04:32:44;;;;;;;;;;;;;;;12.20;77.62;102510.19;4955769;28;20446;-62
2023/05/31 04:35:10;;;;;;;;;;;;;;;12.21;77.77;102510.06;4956651;28;20009;-61
2023/05/31 04:37:36;;;;;;;;;;;;;;;12.24;77.48;102514.25;4948216;28;19937;-61
2023/05/31 04:40:05;;;;;;;;;;;;;;;12.26;77.99;102514.97;4954511;28;20473;-61
2023/05/31 04:42:30;;;;;;;;;;;;;;;12.26;78.15;102513.13;4947469;28;19915;-62
2023/05/31 04:45:01;;;;;;;;;;;;;;;12.29;77.92;102512.00;4959034;28;19929;-62
2023/05/31 04:47:29;;;;;;;;;;;;;;;12.32;78.16;102511.72;4954399;28;20400;-62
2023/05/31 04:49:56;;;;;;;;;;;;;;;12.35;78.46;102524.75;4946263;28;19974;-61
2023/05/31 04:52:22;;;;;;;;;;;;;;;12.36;78.73;102524.63;4954360;28;19997;-61
2023/05/31 04:54:47;;;;;;;;;;;;;;;12.39;78.88;102529.66;4955766;28;20401;-61
2023/05/31 04:57:12;;;;;;;;;;;;;;;12.42;78.98;102523.22;4949706;28;20392;-61
2023/05/31 04:59:38;;;;;;;;;;;;;;;12.48;79.06;102520.00;4950153;28;19999;-63
2023/05/31 05:02:03;;;;;;;;;;;;;;;12.52;79.02;102524.06;4945605;28;20591;-62
2023/05/31 05:04:28;;;;;;;;;;;;;;;12.57;79.37;102527.13;4948806;28;19918;-61
2023/05/31 05:06:53;;;;;;;;;;;;;;;12.61;78.98;102536.53;4952717;28;19922;-61
2023/05/31 05:09:19;;;;;;;;;;;;;;;12.66;79.22;102531.59;4957472;28;19924;-61
2023/05/31 05:11:44;;;;;;;;;;;;;;;12.70;79.34;102529.50;4964834;28;19922;-61
2023/05/31 05:14:10;;;;;;;;;;;;;;;12.74;79.46;102520.25;4948913;28;19915;-61
2023/05/31 05:16:35;;;;;;;;;;;;;;;12.79;79.44;102517.97;4954505;28;19989;-62
2023/05/31 05:19:00;;;;;;;;;;;;;;;12.85;79.51;102525.41;4955652;28;20443;-62
2023/05/31 05:21:26;;;;;;;;;;;;;;;12.92;79.63;102528.31;4965933;28;20398;-62
2023/05/31 05:23:51;;;;;;;;;;;;;;;12.97;79.80;102526.06;4954811;28;20576;-61
2023/05/31 05:26:16;;;;;;;;;;;;;;;13.02;79.24;102530.00;4955389;28;20395;-61
2023/05/31 05:28:42;;;;;;;;;;;;;;;13.07;79.48;102534.88;4952889;28;19922;-62
2023/05/31 05:31:07;;;;;;;;;;;;;;;13.07;79.28;102523.38;4947410;28;20459;-61
2023/05/31 05:33:33;;;;;;;;;;;;;;;13.15;79.59;102528.81;4944056;28;19914;-61
2023/05/31 05:35:58;;;;;;;;;;;;;;;13.19;79.43;102538.25;4950274;28;20009;-61
2023/05/31 05:38:23;;;;;;;;;;;;;;;13.24;78.90;102541.31;4946341;28;19919;-61
2023/05/31 05:40:48;;;;;;;;;;;;;;;13.27;79.20;102538.34;4954429;28;19958;-61
2023/05/31 05:43:14;;;;;;;;;;;;;;;13.31;79.22;102543.25;4959127;28;19974;-61
2023/05/31 05:45:39;;;;;;;;;;;;;;;13.37;78.79;102539.16;4956015;28;19918;-60
2023/05/31 05:48:04;;;;;;;;;;;;;;;13.44;78.78;102539.41;4942990;28;20397;-62
2023/05/31 05:50:29;;;;;;;;;;;;;;;13.50;78.67;102549.47;4946704;28;20379;-61
2023/05/31 05:52:54;;;;;;;;;;;;;;;13.54;78.66;102549.03;4955900;28;20461;-62
2023/05/31 05:55:20;;;;;;;;;;;;;;;13.60;78.71;102537.78;4957976;28;19973;-62
2023/05/31 05:57:45;;;;;;;;;;;;;;;13.66;78.86;102533.69;4947413;28;20451;-61
2023/05/31 06:00:11;;;;;;;;;;;;;;;13.71;78.75;102538.56;4950675;28;19925;-62
2023/05/31 06:02:37;;;;;;;;;;;;;;;13.76;78.48;102538.94;4949678;28;20562;-62
2023/05/31 06:05:02;;;;;;;;;;;;;;;13.82;78.46;102544.53;4949910;28;20311;-62
2023/05/31 06:07:28;;;;;;;;;;;;;;;13.87;78.01;102541.41;4953736;28;19919;-61
2023/05/31 06:09:53;;;;;;;;;;;;;;;13.91;78.06;102550.81;4950570;28;20001;-62
2023/05/31 06:12:18;;;;;;;;;;;;;;;13.94;77.80;102545.16;4958703;28;19921;-62
2023/05/31 06:14:43;;;;;;;;;;;;;;;13.99;77.77;102542.88;4945545;28;19918;-61
2023/05/31 06:17:08;;;;;;;;;;;;;;;14.04;77.52;102545.94;4956234;28;20395;-62
2023/05/31 06:19:34;;;;;;;;;;;;;;;14.06;77.36;102538.59;4944262;28;19934;-61
2023/05/31 06:21:59;;;;;;;;;;;;;;;14.04;77.57;102529.06;4950265;28;20910;-61
2023/05/31 06:24:25;;;;;;;;;;;;;;;14.15;77.15;102539.50;4946564;28;19930;-62
2023/05/31 06:26:50;;;;;;;;;;;;;;;14.20;77.33;102538.09;4952830;28;19919;-62
2023/05/31 06:29:15;;;;;;;;;;;;;;;14.25;77.13;102546.47;4949087;28;20417;-62
2023/05/31 06:31:42;;;;;;;;;;;;;;;14.32;77.17;102541.34;4949075;28;19923;-61
2023/05/31 06:34:07;;;;;;;;;;;;;;;14.36;76.67;102545.41;4945907;28;20400;-62
2023/05/31 06:36:32;;;;;;;;;;;;;;;14.42;76.59;102554.63;4952973;28;19926;-62
2023/05/31 06:38:57;;;;;;;;;;;;;;;14.49;76.33;102553.06;4945162;28;19915;-61
2023/05/31 06:41:23;;;;;;;;;;;;;;;14.54;76.74;102553.44;4952940;28;20579;-61
2023/05/31 06:43:48;;;;;;;;;;;;;;;14.59;76.51;102556.50;4952778;28;20013;-61
2023/05/31 06:46:14;;;;;;;;;;;;;;;14.65;76.37;102553.19;4943896;28;19919;-61
2023/05/31 06:48:39;;;;;;;;;;;;;;;14.68;75.78;102550.19;4944460;28;19929;-60
2023/05/31 06:51:04;;;;;;;;;;;;;;;14.74;75.68;102557.59;4952023;28;19930;-61
2023/05/31 06:53:30;;;;;;;;;;;;;;;14.81;75.96;102553.31;4954717;28;20408;-61
2023/05/31 06:55:55;;;;;;;;;;;;;;;14.90;76.06;102545.34;4948617;28;19948;-61
2023/05/31 06:58:21;;;;;;;;;;;;;;;14.98;75.65;102551.56;4952517;28;19918;-62
2023/05/31 07:00:46;;;;;;;;;;;;;;;15.05;75.08;102543.78;4938741;28;20408;-61
2023/05/31 07:03:11;;;;;;;;;;;;;;;15.11;74.89;102545.81;4947393;28;20408;-62
2023/05/31 07:05:36;;;;;;;;;;;;;;;15.17;74.26;102547.84;4959689;28;19914;-61
2023/05/31 07:08:01;;;;;;;;;;;;;;;15.24;74.33;102553.41;4941286;28;20443;-62
2023/05/31 07:10:27;;;;;;;;;;;;;;;15.31;74.44;102552.59;4949412;28;19929;-62
2023/05/31 07:12:53;;;;;;;;;;;;;;;15.39;74.04;102546.47;4947223;28;20387;-61
2023/05/31 07:15:18;;;;;;;;;;;;;;;15.45;73.68;102548.50;4952578;28;20311;-61
2023/05/31 07:17:43;;;;;;;;;;;;;;;15.52;73.40;102549.53;4951935;28;19918;-62
2023/05/31 07:20:09;;;;;;;;;;;;;;;15.57;73.29;102544.53;4955913;28;19925;-61
2023/05/31 07:22:34;;;;;;;;;;;;;;;15.64;72.83;102550.13;4945230;28;19962;-62
2023/05/31 07:24:59;;;;;;;;;;;;;;;15.70;72.93;102541.44;4949916;28;19922;-62
2023/05/31 07:27:24;;;;;;;;;;;;;;;15.74;72.53;102534.75;4936722;28;19922;-61
2023/05/31 07:29:50;;;;;;;;;;;;;;;15.77;71.96;102532.56;4952509;28;19954;-62
2023/05/31 07:32:15;;;;;;;;;;;;;;;15.82;71.81;102528.56;4956007;28;20323;-62
2023/05/31 07:34:40;;;;;;;;;;;;;;;15.86;71.71;102524.56;4950533;28;19946;-61
2023/05/31 07:37:06;;;;;;;;;;;;;;;15.91;71.41;102524.91;4946271;28;19917;-61
2023/05/31 07:39:31;;;;;;;;;;;;;;;15.98;71.60;102516.06;4941105;28;19918;-62
2023/05/31 07:41:58;;;;;;;;;;;;;;;16.06;71.66;102517.91;4945105;28;20380;-61
2023/05/31 07:44:25;;;;;;;;;;;;;;;16.15;71.30;102524.94;4960183;28;20300;-62
2023/05/31 07:46:50;;;;;;;;;;;;;;;16.21;70.75;102524.28;4942944;28;19972;-61
2023/05/31 07:49:15;;;;;;;;;;;;;;;16.25;71.14;102522.94;4946414;28;19969;-62
2023/05/31 07:51:40;;;;;;;;;;;;;;;16.34;71.02;102516.56;4950700;28;19923;-64
2023/05/31 07:54:05;;;;;;;;;;;;;;;16.46;70.54;102519.75;4946500;28;19923;-62
2023/05/31 07:56:30;;;;;;;;;;;;;;;16.53;70.22;102518.09;4956942;28;19918;-62
2023/05/31 07:58:56;;;;;;;;;;;;;;;16.61;69.89;102517.25;4947972;28;19922;-62
2023/05/31 08:01:21;;;;;;;;;;;;;;;16.67;69.98;102513.91;4954664;28;20407;-62
2023/05/31 08:03:46;;;;;;;;;;;;;;;16.78;69.90;102523.47;4956678;28;19927;-62
2023/05/31 08:06:11;;;;;;;;;;;;;;;16.87;69.75;102528.63;4955487;28;19926;-63
2023/05/31 08:08:37;;;;;;;;;;;;;;;16.96;69.06;102516.88;4959153;28;19919;-62
2023/05/31 08:11:02;;;;;;;;;;;;;;;17.09;69.01;102512.81;4961450;28;20510;-62
2023/05/31 08:13:28;;;;;;;;;;;;;;;17.18;68.53;102519.84;4954379;28;20356;-61
2023/05/31 08:15:54;;;;;;;;;;;;;;;17.29;68.47;102511.38;4954350;28;19919;-62
2023/05/31 08:18:19;;;;;;;;;;;;;;;17.40;67.56;102513.72;4953681;28;19944;-62
2023/05/31 08:20:44;;;;;;;;;;;;;;;17.49;67.78;102512.66;4953333;28;19997;-62
2023/05/31 08:23:16;;;;;;;;;;;;;;;17.59;67.48;102510.56;4953764;28;19918;-62
2023/05/31 08:25:41;;;;;;;;;;;;;;;17.73;67.29;102513.56;4956860;28;20020;-62
2023/05/31 08:28:07;;;;;;;;;;;;;;;17.83;66.64;102506.94;4954966;28;20013;-62
2023/05/31 08:30:32;;;;;;;;;;;;;;;17.95;66.14;102510.09;4961548;28;19926;-62
2023/05/31 08:32:57;;;;;;;;;;;;;;;18.08;65.86;102501.41;4961160;28;20009;-62
2023/05/31 08:35:22;;;;;;;;;;;;;;;18.22;65.42;102506.03;4944831;28;19927;-62
2023/05/31 08:37:48;;;;;;;;;;;;;;;18.36;65.24;102502.53;4952543;28;19937;-62
2023/05/31 08:40:13;;;;;;;;;;;;;;;18.51;65.06;102503.41;4962916;28;19914;-62
2023/05/31 08:42:51;;;;;;;;;;;;;;;18.66;64.10;102503.47;4958642;28;20006;-62
2023/05/31 08:45:17;;;;;;;;;;;;;;;18.83;63.70;102507.66;4956251;28;20005;-62
2023/05/31 08:47:43;;;;;;;;;;;;;;;18.98;63.01;102496.06;4947777;28;20006;-63
2023/05/31 08:50:09;;;;;;;;;;;;;;;19.13;62.51;102491.53;4967870;28;19918;-62
2023/05/31 08:52:34;;;;;;;;;;;;;;;19.27;61.75;102487.13;4950555;28;19914;-62
2023/05/31 08:55:01;;;;;;;;;;;;;;;19.40;61.72;102488.16;4963651;28;19926;-62
2023/05/31 08:57:28;;;;;;;;;;;;;;;19.55;61.76;102490.81;4950486;28;20832;-63
2023/05/31 08:59:53;;;;;;;;;;;;;;;19.72;61.08;102494.13;4955118;28;19929;-62
2023/05/31 09:02:19;;;;;;;;;;;;;;;19.89;60.34;102486.63;4959535;28;19914;-62
2023/05/31 09:04:45;;;;;;;;;;;;;;;20.05;59.84;102486.38;4958297;28;20355;-63
2023/05/31 09:07:10;;;;;;;;;;;;;;;20.21;59.11;102490.66;4960339;28;19946;-63
2023/05/31 09:09:35;;;;;;;;;;;;;;;20.38;58.60;102486.66;4957502;28;20384;-63
2023/05/31 09:12:00;;;;;;;;;;;;;;;20.51;58.11;102486.78;4947754;28;19929;-63
2023/05/31 09:14:26;;;;;;;;;;;;;;;20.61;57.72;102486.47;4956704;28;19914;-63
2023/05/31 09:16:51;;;;;;;;;;;;;;;20.76;57.94;102483.66;4950442;28;19918;-62
2023/05/31 09:19:16;;;;;;;;;;;;;;;20.85;57.15;102486.00;4949373;28;20380;-61
2023/05/31 09:21:43;;;;;;;;;;;;;;;20.93;56.42;102480.44;4941394;28;19946;-62
2023/05/31 09:24:10;;;;;;;;;;;;;;;21.10;56.54;102480.09;4956941;28;19929;-62
2023/05/31 09:26:35;;;;;;;;;;;;;;;21.21;55.71;102476.84;4946569;28;19919;-62
2023/05/31 09:29:00;;;;;;;;;;;;;;;21.29;55.48;102471.28;4953637;28;19968;-62
2023/05/31 09:31:27;;;;;;;;;;;;;;;21.41;54.91;102474.25;4952302;28;20062;-62
2023/05/31 09:33:54;;;;;;;;;;;;;;;21.55;54.59;102473.25;4950011;28;19922;-62
2023/05/31 09:36:32;;;;;;;;;;;;;;;21.71;54.39;102466.66;4950286;28;19945;-63
2023/05/31 09:39:00;;;;;;;;;;;;;;;21.86;53.63;102467.28;4954683;28;20014;-62
2023/05/31 09:41:27;;;;;;;;;;;;;;;21.98;52.60;102462.97;4951210;28;19914;-62
2023/05/31 09:43:52;;;;;;;;;;;;;;;22.10;52.56;102460.50;4954409;28;19918;-63
2023/05/31 09:46:18;;;;;;;;;;;;;;;22.23;52.41;102463.19;4944129;28;19918;-63
2023/05/31 09:48:44;;;;;;;;;;;;;;;22.36;52.01;102457.78;4947715;28;20030;-63
2023/05/31 09:51:10;;;;;;;;;;;;;;;22.47;51.54;102459.00;4956700;28;19950;-62
2023/05/31 09:53:39;;;;;;;;;;;;;;;22.54;51.05;102452.53;4953245;28;19918;-61
2023/05/31 09:56:09;;;;;;;;;;;;;;;22.59;50.70;102453.81;4950123;28;20001;-63
2023/05/31 09:58:34;;;;;;;;;;;;;;;22.55;50.20;102448.81;4949074;28;20412;-63
2023/05/31 10:00:59;;;;;;;;;;;;;;;22.64;50.19;102451.28;4959193;28;19927;-62
2023/05/31 10:03:27;;;;;;;;;;;;;;;22.76;49.83;102449.59;4959812;28;19918;-63
2023/05/31 10:05:52;;;;;;;;;;;;;;;22.87;49.47;102446.28;4952210;28;20017;-62
2023/05/31 10:08:18;;;;;;;;;;;;;;;23.00;48.85;102448.91;4956336;28;20062;-63
2023/05/31 10:10:43;;;;;;;;;;;;;;;23.11;48.64;102436.56;4950477;28;20316;-63
2023/05/31 10:13:11;;;;;;;;;;;;;;;23.21;48.45;102441.56;4952231;28;20109;-63
2023/05/31 10:15:37;;;;;;;;;;;;;;;23.30;47.85;102442.97;4949359;28;19937;-62
2023/05/31 10:18:02;;;;;;;;;;;;;;;23.39;47.12;102444.38;4945958;28;19928;-63
2023/05/31 10:20:38;;;;;;;;;;;;;;;23.45;46.98;102436.22;4961122;28;19918;-63
2023/05/31 10:23:05;;;;;;;;;;;;;;;23.44;47.43;102429.13;4954850;28;20276;-62
2023/05/31 10:25:38;;;;;;;;;;;;;;;23.47;47.85;102436.81;4947127;28;19925;-63
2023/05/31 10:28:08;;;;;;;;;;;;;;;23.60;46.96;102426.97;4960609;28;19929;-63
2023/05/31 10:30:35;;;;;;;;;;;;;;;23.65;46.36;102421.72;4957488;28;19926;-63
2023/05/31 10:33:07;;;;;;;;;;;;;;;23.70;45.75;102422.72;4952857;28;19925;-62
2023/05/31 10:35:32;;;;;;;;;;;;;;;23.87;45.00;102419.47;4959939;28;19925;-62
2023/05/31 10:37:58;;;;;;;;;;;;;;;24.00;44.09;102417.50;4955064;28;19923;-63
2023/05/31 10:40:26;;;;;;;;;;;;;;;23.95;44.53;102420.03;4955449;28;19945;-62
2023/05/31 10:43:05;;;;;;;;;;;;;;;23.93;44.35;102413.16;4949352;28;19925;-63
2023/05/31 10:45:42;;;;;;;;;;;;;;;24.01;44.49;102405.59;4960106;28;19922;-63
2023/05/31 10:48:26;;;;;;;;;;;;;;;24.00;43.56;102401.22;4952330;28;19922;-62
2023/05/31 10:50:58;;;;;;;;;;;;;;;23.95;42.78;102402.91;4948724;28;19933;-63
2023/05/31 10:53:39;;;;;;;;;;;;;;;24.03;42.16;102398.06;4954710;28;19929;-63
2023/05/31 10:56:06;;;;;;;;;;;;;;;24.16;42.30;102405.25;4957680;28;19918;-62
2023/05/31 10:58:37;;;;;;;;;;;;;;;24.27;42.63;102390.91;4959984;28;19926;-60
2023/05/31 11:01:04;;;;;;;;;;;;;;;24.38;42.09;102387.50;4948108;28;19945;-60
2023/05/31 11:03:31;;;;;;;;;;;;;;;24.43;42.67;102386.00;4950453;28;20428;-60
2023/05/31 11:06:01;;;;;;;;;;;;;;;24.39;42.61;102386.47;4948799;28;20005;-60
2023/05/31 11:08:27;;;;;;;;;;;;;;;24.37;42.41;102383.13;4943463;28;20045;-60
2023/05/31 11:10:52;;;;;;;;;;;;;;;24.38;42.58;102386.69;4956474;28;19938;-60
2023/05/31 11:13:18;;;;;;;;;;;;;;;24.43;41.65;102381.41;4955937;28;20109;-59
2023/05/31 11:15:44;;;;;;;;;;;;;;;24.46;41.25;102383.66;4962316;28;19918;-62
2023/05/31 11:18:14;;;;;;;;;;;;;;;24.44;41.77;102377.63;4945051;28;20368;-63
2023/05/31 11:20:39;;;;;;;;;;;;;;;24.46;42.20;102380.13;4946784;28;19921;-63
2023/05/31 11:23:16;;;;;;;;;;;;;;;24.55;42.27;102371.44;4947223;28;19922;-60
2023/05/31 11:25:41;;;;;;;;;;;;;;;24.72;41.58;102371.66;4941795;28;19926;-60
2023/05/31 11:28:07;;;;;;;;;;;;;;;24.87;41.78;102380.28;4950193;28;19922;-60
2023/05/31 11:30:35;;;;;;;;;;;;;;;24.85;41.43;102367.94;4944973;28;19992;-60
2023/05/31 11:33:00;;;;;;;;;;;;;;;24.84;41.44;102366.28;4946115;28;19922;-60
2023/05/31 11:35:26;;;;;;;;;;;;;;;24.83;41.15;102370.06;4957797;28;19914;-61
2023/05/31 11:37:59;;;;;;;;;;;;;;;24.87;41.14;102374.84;4950556;28;19973;-59
2023/05/31 11:40:24;;;;;;;;;;;;;;;24.89;41.48;102370.00;4942670;28;19946;-60
2023/05/31 11:42:50;;;;;;;;;;;;;;;24.94;40.87;102377.47;4950901;28;19973;-59
2023/05/31 11:45:20;;;;;;;;;;;;;;;25.00;39.98;102377.41;4952856;28;19918;-60
2023/05/31 11:48:04;;;;;;;;;;;;;;;25.05;39.82;102373.16;4951015;28;19966;-59
2023/05/31 11:50:30;;;;;;;;;;;;;;;25.06;39.98;102367.50;4957952;28;19923;-61
2023/05/31 11:52:58;;;;;;;;;;;;;;;24.97;39.92;102371.56;4952346;28;19949;-61
2023/05/31 11:55:30;;;;;;;;;;;;;;;24.88;40.27;102365.63;4955135;28;19974;-60
2023/05/31 11:57:55;;;;;;;;;;;;;;;24.93;40.25;102363.06;4950503;28;20025;-61
2023/05/31 12:00:21;;;;;;;;;;;;;;;25.02;39.93;102358.97;4956801;28;20022;-61
2023/05/31 12:02:51;;;;;;;;;;;;;;;25.10;40.27;102349.66;4946255;28;20050;-61
2023/05/31 12:05:16;;;;;;;;;;;;;;;25.13;40.54;102349.19;4950869;28;20372;-61
2023/05/31 12:07:42;;;;;;;;;;;;;;;25.20;40.50;102343.69;4948536;28;19932;-61
2023/05/31 12:10:08;;;;;;;;;;;;;;;25.15;40.47;102344.34;4946584;28;20537;-61
2023/05/31 12:12:33;;;;;;;;;;;;;;;25.20;39.81;102349.97;4954425;28;19922;-61
2023/05/31 12:15:01;;;;;;;;;;;;;;;25.20;40.17;102344.53;4946961;28;19926;-61
2023/05/31 12:17:26;;;;;;;;;;;;;;;25.15;39.97;102329.94;4952130;28;19924;-61
2023/05/31 12:19:51;;;;;;;;;;;;;;;25.07;40.31;102322.13;4956935;28;19918;-60
2023/05/31 12:22:16;;;;;;;;;;;;;;;25.07;40.30;102338.41;4955748;28;19918;-61
2023/05/31 12:24:51;;;;;;;;;;;;;;;25.19;40.26;102331.97;4955577;28;20009;-60
2023/05/31 12:27:17;;;;;;;;;;;;;;;25.35;40.46;102325.03;4955500;28;19918;-61
2023/05/31 12:29:42;;;;;;;;;;;;;;;25.46;40.21;102324.25;4951749;28;20364;-61